sensor_id;sensor_type;location;lat;lon;timestamp;pressure;altitude;pressure_sealevel;temperature;humidity
58622;BME280;44389;51.578;5.456;2023-03-12T00:00:45;101051.34;;;1.14;84.27
58622;BME280;44389;51.578;5.456;2023-03-12T00:03:10;101060.63;;;1.14;83.71
58622;BME280;44389;51.578;5.456;2023-03-12T00:05:39;101055.53;;;1.14;84.26
58622;BME280;44389;51.578;5.456;2023-03-12T00:08:05;101057.31;;;1.15;84.78
58622;BME280;44389;51.578;5.456;2023-03-12T00:10:32;101057.09;;;1.12;84.52
58622;BME280;44389;51.578;5.456;2023-03-12T00:12:57;101044.50;;;1.13;84.60
58622;BME280;44389;51.578;5.456;2023-03-12T00:15:23;101046.94;;;1.12;84.63
58622;BME280;44389;51.578;5.456;2023-03-12T00:17:49;101047.16;;;1.15;84.21
58622;BME280;44389;51.578;5.456;2023-03-12T00:20:14;101046.50;;;1.18;83.83
58622;BME280;44389;51.578;5.456;2023-03-12T00:22:40;101045.59;;;1.17;84.42
58622;BME280;44389;51.578;5.456;2023-03-12T00:25:09;101038.06;;;1.19;83.28
58622;BME280;44389;51.578;5.456;2023-03-12T00:27:35;101031.13;;;1.16;84.25
58622;BME280;44389;51.578;5.456;2023-03-12T00:30:01;101014.16;;;1.15;84.16
58622;BME280;44389;51.578;5.456;2023-03-12T00:32:26;101012.38;;;1.14;83.21
58622;BME280;44389;51.578;5.456;2023-03-12T00:34:53;101017.47;;;1.14;84.73
58622;BME280;44389;51.578;5.456;2023-03-12T00:37:20;101013.94;;;1.12;84.94
58622;BME280;44389;51.578;5.456;2023-03-12T00:39:45;101013.06;;;1.11;84.03
58622;BME280;44389;51.578;5.456;2023-03-12T00:42:11;101008.94;;;1.13;84.33
58622;BME280;44389;51.578;5.456;2023-03-12T00:44:36;100999.47;;;1.11;84.74
58622;BME280;44389;51.578;5.456;2023-03-12T00:47:01;100999.47;;;1.11;84.95
58622;BME280;44389;51.578;5.456;2023-03-12T00:49:27;101010.63;;;1.13;84.94
58622;BME280;44389;51.578;5.456;2023-03-12T00:51:52;101012.38;;;1.14;84.23
58622;BME280;44389;51.578;5.456;2023-03-12T00:54:18;101005.63;;;1.14;84.59
58622;BME280;44389;51.578;5.456;2023-03-12T00:56:43;100999.91;;;1.17;84.65
58622;BME280;44389;51.578;5.456;2023-03-12T00:59:11;100989.75;;;1.17;84.44
58622;BME280;44389;51.578;5.456;2023-03-12T01:01:36;100988.97;;;1.18;85.03
58622;BME280;44389;51.578;5.456;2023-03-12T01:04:01;100978.91;;;1.20;84.49
58622;BME280;44389;51.578;5.456;2023-03-12T01:06:27;100989.06;;;1.20;84.47
58622;BME280;44389;51.578;5.456;2023-03-12T01:08:52;100984.91;;;1.20;84.01
58622;BME280;44389;51.578;5.456;2023-03-12T01:11:20;100985.88;;;1.22;83.49
58622;BME280;44389;51.578;5.456;2023-03-12T01:13:46;100984.22;;;1.23;83.35
58622;BME280;44389;51.578;5.456;2023-03-12T01:16:11;100973.16;;;1.22;84.50
58622;BME280;44389;51.578;5.456;2023-03-12T01:18:37;100970.06;;;1.26;83.65
58622;BME280;44389;51.578;5.456;2023-03-12T01:21:03;100969.97;;;1.25;83.68
58622;BME280;44389;51.578;5.456;2023-03-12T01:23:28;100976.03;;;1.27;84.53
58622;BME280;44389;51.578;5.456;2023-03-12T01:25:53;100974.38;;;1.27;83.01
58622;BME280;44389;51.578;5.456;2023-03-12T01:28:23;100976.25;;;1.30;83.10
58622;BME280;44389;51.578;5.456;2023-03-12T01:30:48;100981.22;;;1.28;84.04
58622;BME280;44389;51.578;5.456;2023-03-12T01:33:13;100977.91;;;1.29;84.92
58622;BME280;44389;51.578;5.456;2023-03-12T01:35:40;100971.84;;;1.27;84.56
58622;BME280;44389;51.578;5.456;2023-03-12T01:38:06;100969.41;;;1.29;83.62
58622;BME280;44389;51.578;5.456;2023-03-12T01:40:34;100959.91;;;1.26;84.52
58622;BME280;44389;51.578;5.456;2023-03-12T01:46:15;100973.81;;;1.31;84.73
58622;BME280;44389;51.578;5.456;2023-03-12T01:48:50;100961.91;;;1.30;83.88
58622;BME280;44389;51.578;5.456;2023-03-12T01:51:18;100932.31;;;1.31;83.40
58622;BME280;44389;51.578;5.456;2023-03-12T01:53:47;100927.91;;;1.28;84.29
58622;BME280;44389;51.578;5.456;2023-03-12T01:56:14;100942.25;;;1.28;83.60
58622;BME280;44389;51.578;5.456;2023-03-12T01:58:45;100936.53;;;1.30;84.19
58622;BME280;44389;51.578;5.456;2023-03-12T02:01:13;100944.91;;;1.29;84.10
58622;BME280;44389;51.578;5.456;2023-03-12T02:03:39;100940.69;;;1.30;84.35
58622;BME280;44389;51.578;5.456;2023-03-12T02:06:12;100936.28;;;1.27;85.00
58622;BME280;44389;51.578;5.456;2023-03-12T02:08:41;100923.69;;;1.29;84.42
58622;BME280;44389;51.578;5.456;2023-03-12T02:11:08;100932.88;;;1.27;84.44
58622;BME280;44389;51.578;5.456;2023-03-12T02:13:33;100938.72;;;1.26;85.58
58622;BME280;44389;51.578;5.456;2023-03-12T02:15:59;100922.81;;;1.28;84.27
58622;BME280;44389;51.578;5.456;2023-03-12T02:18:24;100910.91;;;1.27;84.45
58622;BME280;44389;51.578;5.456;2023-03-12T02:21:13;100921.28;;;1.30;84.80
58622;BME280;44389;51.578;5.456;2023-03-12T02:23:55;100907.59;;;1.28;84.04
58622;BME280;44389;51.578;5.456;2023-03-12T02:26:23;100909.34;;;1.29;84.74
58622;BME280;44389;51.578;5.456;2023-03-12T02:28:49;100899.19;;;1.29;85.05
58622;BME280;44389;51.578;5.456;2023-03-12T02:31:18;100896.66;;;1.29;85.38
58622;BME280;44389;51.578;5.456;2023-03-12T02:33:44;100890.81;;;1.30;85.31
58622;BME280;44389;51.578;5.456;2023-03-12T02:36:10;100889.91;;;1.30;85.07
58622;BME280;44389;51.578;5.456;2023-03-12T02:38:45;100894.13;;;1.29;85.69
58622;BME280;44389;51.578;5.456;2023-03-12T02:41:30;100895.88;;;1.30;85.76
58622;BME280;44389;51.578;5.456;2023-03-12T02:44:09;100906.03;;;1.30;85.55
58622;BME280;44389;51.578;5.456;2023-03-12T02:46:41;100909.34;;;1.29;84.74
58622;BME280;44389;51.578;5.456;2023-03-12T02:49:07;100906.91;;;1.31;85.18
58622;BME280;44389;51.578;5.456;2023-03-12T02:51:33;100904.28;;;1.29;85.58
58622;BME280;44389;51.578;5.456;2023-03-12T02:53:58;100902.69;;;1.31;85.75
58622;BME280;44389;51.578;5.456;2023-03-12T02:56:25;100894.22;;;1.31;85.11
58622;BME280;44389;51.578;5.456;2023-03-12T02:58:51;100892.53;;;1.31;85.13
58622;BME280;44389;51.578;5.456;2023-03-12T03:01:17;100884.06;;;1.31;85.40
58622;BME280;44389;51.578;5.456;2023-03-12T03:03:42;100874.78;;;1.31;85.83
58622;BME280;44389;51.578;5.456;2023-03-12T03:06:08;100875.56;;;1.30;86.14
58622;BME280;44389;51.578;5.456;2023-03-12T03:08:33;100870.50;;;1.30;85.56
58622;BME280;44389;51.578;5.456;2023-03-12T03:10:58;100878.13;;;1.30;86.24
58622;BME280;44389;51.578;5.456;2023-03-12T03:13:27;100878.22;;;1.32;86.55
58622;BME280;44389;51.578;5.456;2023-03-12T03:15:52;100884.16;;;1.33;87.25
58622;BME280;44389;51.578;5.456;2023-03-12T03:18:18;100887.47;;;1.31;87.33
58622;BME280;44389;51.578;5.456;2023-03-12T03:20:43;100883.19;;;1.30;87.84
58622;BME280;44389;51.578;5.456;2023-03-12T03:23:09;100881.31;;;1.28;88.58
58622;BME280;44389;51.578;5.456;2023-03-12T03:25:34;100882.00;;;1.25;88.15
58622;BME280;44389;51.578;5.456;2023-03-12T03:27:59;100883.75;;;1.26;88.66
58622;BME280;44389;51.578;5.456;2023-03-12T03:30:25;100886.41;;;1.28;89.94
58622;BME280;44389;51.578;5.456;2023-03-12T03:32:50;100892.16;;;1.25;89.59
58622;BME280;44389;51.578;5.456;2023-03-12T03:35:15;100884.06;;;1.31;90.63
58622;BME280;44389;51.578;5.456;2023-03-12T03:37:41;100879.09;;;1.33;91.94
58622;BME280;44389;51.578;5.456;2023-03-12T03:40:07;100877.72;;;1.38;91.38
58622;BME280;44389;51.578;5.456;2023-03-12T03:42:36;100874.50;;;1.40;92.97
58622;BME280;44389;51.578;5.456;2023-03-12T03:45:01;100863.69;;;1.43;93.33
58622;BME280;44389;51.578;5.456;2023-03-12T03:47:26;100871.53;;;1.46;93.40
58622;BME280;44389;51.578;5.456;2023-03-12T03:49:51;100861.38;;;1.46;94.36
58622;BME280;44389;51.578;5.456;2023-03-12T03:52:17;100853.06;;;1.48;94.81
58622;BME280;44389;51.578;5.456;2023-03-12T03:54:42;100845.44;;;1.48;94.53
58622;BME280;44389;51.578;5.456;2023-03-12T03:57:07;100843.00;;;1.50;95.32
58622;BME280;44389;51.578;5.456;2023-03-12T03:59:33;100829.31;;;1.48;95.96
58622;BME280;44389;51.578;5.456;2023-03-12T04:01:58;100832.63;;;1.47;95.50
58622;BME280;44389;51.578;5.456;2023-03-12T04:04:23;100834.28;;;1.46;96.01
58622;BME280;44389;51.578;5.456;2023-03-12T04:06:48;100826.59;;;1.45;96.82
58622;BME280;44389;51.578;5.456;2023-03-12T04:09:14;100821.59;;;1.46;96.34
58622;BME280;44389;51.578;5.456;2023-03-12T04:11:39;100819.91;;;1.47;96.60
58622;BME280;44389;51.578;5.456;2023-03-12T04:14:05;100820.72;;;1.46;97.13
58622;BME280;44389;51.578;5.456;2023-03-12T04:16:30;100809.66;;;1.45;96.94
58622;BME280;44389;51.578;5.456;2023-03-12T04:18:55;100796.19;;;1.46;96.91
58622;BME280;44389;51.578;5.456;2023-03-12T04:21:21;100801.19;;;1.45;97.16
58622;BME280;44389;51.578;5.456;2023-03-12T04:23:46;100795.09;;;1.43;97.12
58622;BME280;44389;51.578;5.456;2023-03-12T04:26:11;100794.34;;;1.44;96.30
58622;BME280;44389;51.578;5.456;2023-03-12T04:28:37;100787.41;;;1.41;96.60
58622;BME280;44389;51.578;5.456;2023-03-12T04:31:05;100774.59;;;1.40;97.10
58622;BME280;44389;51.578;5.456;2023-03-12T04:33:33;100777.91;;;1.39;96.70
58622;BME280;44389;51.578;5.456;2023-03-12T04:35:59;100777.91;;;1.39;96.43
58622;BME280;44389;51.578;5.456;2023-03-12T04:38:25;100767.75;;;1.39;96.73
58622;BME280;44389;51.578;5.456;2023-03-12T04:41:09;100771.28;;;1.41;97.19
58622;BME280;44389;51.578;5.456;2023-03-12T04:43:35;100765.22;;;1.39;97.26
58622;BME280;44389;51.578;5.456;2023-03-12T04:46:01;100762.78;;;1.40;97.05
58622;BME280;44389;51.578;5.456;2023-03-12T04:48:27;100771.97;;;1.38;97.34
58622;BME280;44389;51.578;5.456;2023-03-12T04:50:53;100777.16;;;1.40;97.65
58622;BME280;44389;51.578;5.456;2023-03-12T04:53:19;100764.44;;;1.40;97.21
58622;BME280;44389;51.578;5.456;2023-03-12T04:55:44;100759.38;;;1.40;97.81
58622;BME280;44389;51.578;5.456;2023-03-12T04:58:09;100758.69;;;1.42;97.05
58622;BME280;44389;51.578;5.456;2023-03-12T05:00:35;100751.94;;;1.43;97.22
58622;BME280;44389;51.578;5.456;2023-03-12T05:03:00;100757.09;;;1.44;96.76
58622;BME280;44389;51.578;5.456;2023-03-12T05:05:26;100752.16;;;1.46;96.46
58622;BME280;44389;51.578;5.456;2023-03-12T05:07:51;100746.28;;;1.47;96.79
58622;BME280;44389;51.578;5.456;2023-03-12T05:10:16;100742.97;;;1.48;96.65
58622;BME280;44389;51.578;5.456;2023-03-12T05:12:42;100738.09;;;1.51;96.38
58622;BME280;44389;51.578;5.456;2023-03-12T05:15:08;100727.94;;;1.51;97.15
58622;BME280;44389;51.578;5.456;2023-03-12T05:17:33;100723.72;;;1.52;96.87
58622;BME280;44389;51.578;5.456;2023-03-12T05:19:58;100728.78;;;1.52;97.33
58622;BME280;44389;51.578;5.456;2023-03-12T05:22:24;100733.97;;;1.53;97.50
58622;BME280;44389;51.578;5.456;2023-03-12T05:24:49;100728.78;;;1.52;97.36
58622;BME280;44389;51.578;5.456;2023-03-12T05:27:14;100722.03;;;1.52;97.82
58622;BME280;44389;51.578;5.456;2023-03-12T05:29:40;100719.50;;;1.52;98.37
58622;BME280;44389;51.578;5.456;2023-03-12T05:32:05;100707.63;;;1.51;99.03
58622;BME280;44389;51.578;5.456;2023-03-12T05:34:31;100714.44;;;1.52;100.00
58622;BME280;44389;51.578;5.456;2023-03-12T05:36:57;100707.78;;;1.54;100.00
58622;BME280;44389;51.578;5.456;2023-03-12T05:39:22;100709.34;;;1.52;100.00
58622;BME280;44389;51.578;5.456;2023-03-12T05:41:48;100704.25;;;1.52;100.00
58622;BME280;44389;51.578;5.456;2023-03-12T05:44:13;100713.56;;;1.52;100.00
58622;BME280;44389;51.578;5.456;2023-03-12T05:46:40;100716.97;;;1.52;100.00
58622;BME280;44389;51.578;5.456;2023-03-12T05:49:06;100713.56;;;1.52;100.00
58622;BME280;44389;51.578;5.456;2023-03-12T05:51:31;100713.47;;;1.50;100.00
58622;BME280;44389;51.578;5.456;2023-03-12T05:53:56;100707.63;;;1.51;100.00
58622;BME280;44389;51.578;5.456;2023-03-12T05:56:23;100699.09;;;1.51;100.00
58622;BME280;44389;51.578;5.456;2023-03-12T05:58:48;100696.56;;;1.51;100.00
58622;BME280;44389;51.578;5.456;2023-03-12T06:01:22;100705.84;;;1.50;100.00
58622;BME280;44389;51.578;5.456;2023-03-12T06:03:48;100699.09;;;1.51;100.00
58622;BME280;44389;51.578;5.456;2023-03-12T06:06:14;100710.94;;;1.50;100.00
58622;BME280;44389;51.578;5.456;2023-03-12T06:08:40;100715.22;;;1.51;100.00
58622;BME280;44389;51.578;5.456;2023-03-12T06:11:06;100709.25;;;1.51;100.00
58622;BME280;44389;51.578;5.456;2023-03-12T06:13:32;100712.69;;;1.51;100.00
58622;BME280;44389;51.578;5.456;2023-03-12T06:16:02;100724.72;;;1.54;100.00
58622;BME280;44389;51.578;5.456;2023-03-12T06:18:29;100724.03;;;1.56;100.00
58622;BME280;44389;51.578;5.456;2023-03-12T06:20:54;100716.41;;;1.56;100.00
58622;BME280;44389;51.578;5.456;2023-03-12T06:23:19;100728.50;;;1.60;100.00
58622;BME280;44389;51.578;5.456;2023-03-12T06:25:45;100725.97;;;1.60;100.00
58622;BME280;44389;51.578;5.456;2023-03-12T06:28:10;100725.28;;;1.63;100.00
58622;BME280;44389;51.578;5.456;2023-03-12T06:30:35;100717.66;;;1.63;100.00
58622;BME280;44389;51.578;5.456;2023-03-12T06:33:00;100715.13;;;1.63;100.00
58622;BME280;44389;51.578;5.456;2023-03-12T06:35:28;100707.59;;;1.64;100.00
58622;BME280;44389;51.578;5.456;2023-03-12T06:37:53;100705.06;;;1.64;100.00
58622;BME280;44389;51.578;5.456;2023-03-12T06:40:18;100693.22;;;1.65;100.00
58622;BME280;44389;51.578;5.456;2023-03-12T06:42:44;100694.91;;;1.64;100.00
58622;BME280;44389;51.578;5.456;2023-03-12T06:45:09;100693.13;;;1.63;100.00
58622;BME280;44389;51.578;5.456;2023-03-12T06:47:35;100688.81;;;1.62;100.00
58622;BME280;44389;51.578;5.456;2023-03-12T06:50:00;100682.00;;;1.61;100.00
58622;BME280;44389;51.578;5.456;2023-03-12T06:52:26;100681.88;;;1.60;100.00
58622;BME280;44389;51.578;5.456;2023-03-12T06:54:51;100679.34;;;1.60;100.00
58622;BME280;44389;51.578;5.456;2023-03-12T06:57:16;100676.03;;;1.61;100.00
58622;BME280;44389;51.578;5.456;2023-03-12T06:59:42;100670.25;;;1.63;100.00
58622;BME280;44389;51.578;5.456;2023-03-12T07:02:11;100673.72;;;1.64;100.00
58622;BME280;44389;51.578;5.456;2023-03-12T07:04:36;100666.19;;;1.66;100.00
58622;BME280;44389;51.578;5.456;2023-03-12T07:07:02;100659.31;;;1.64;100.00
58622;BME280;44389;51.578;5.456;2023-03-12T07:09:27;100668.91;;;1.69;100.00
58622;BME280;44389;51.578;5.456;2023-03-12T07:11:52;100666.44;;;1.70;100.00
58622;BME280;44389;51.578;5.456;2023-03-12T07:14:18;100663.13;;;1.71;100.00
58622;BME280;44389;51.578;5.456;2023-03-12T07:16:45;100661.47;;;1.72;100.00
58622;BME280;44389;51.578;5.456;2023-03-12T07:19:13;100663.41;;;1.76;100.00
58622;BME280;44389;51.578;5.456;2023-03-12T07:21:38;100661.84;;;1.78;100.00
58622;BME280;44389;51.578;5.456;2023-03-12T07:24:04;100656.97;;;1.81;100.00
58622;BME280;44389;51.578;5.456;2023-03-12T07:26:32;100671.59;;;1.85;100.00
58622;BME280;44389;51.578;5.456;2023-03-12T07:28:58;100674.94;;;1.84;100.00
58622;BME280;44389;51.578;5.456;2023-03-12T07:31:23;100668.09;;;1.83;100.00
58622;BME280;44389;51.578;5.456;2023-03-12T07:33:48;100670.63;;;1.83;100.00
58622;BME280;44389;51.578;5.456;2023-03-12T07:36:13;100676.31;;;1.79;100.00
58622;BME280;44389;51.578;5.456;2023-03-12T07:38:39;100673.75;;;1.79;100.00
58622;BME280;44389;51.578;5.456;2023-03-12T07:41:05;100670.84;;;1.86;100.00
58622;BME280;44389;51.578;5.456;2023-03-12T07:43:30;100671.00;;;1.89;100.00
58622;BME280;44389;51.578;5.456;2023-03-12T07:45:55;100671.88;;;1.90;100.00
58622;BME280;44389;51.578;5.456;2023-03-12T07:48:21;100673.56;;;1.89;100.00
58622;BME280;44389;51.578;5.456;2023-03-12T07:50:46;100679.72;;;1.93;100.00
58622;BME280;44389;51.578;5.456;2023-03-12T07:53:12;100671.31;;;1.94;100.00
58622;BME280;44389;51.578;5.456;2023-03-12T07:55:37;100674.88;;;1.97;100.00
58622;BME280;44389;51.578;5.456;2023-03-12T07:58:03;100670.09;;;2.02;100.00
58622;BME280;44389;51.578;5.456;2023-03-12T08:00:29;100677.03;;;2.05;100.00
58622;BME280;44389;51.578;5.456;2023-03-12T08:02:54;100673.09;;;2.10;100.00
58622;BME280;44389;51.578;5.456;2023-03-12T08:05:20;100676.81;;;2.15;100.00
58622;BME280;44389;51.578;5.456;2023-03-12T08:07:49;100671.19;;;2.21;100.00
58622;BME280;44389;51.578;5.456;2023-03-12T08:10:14;100668.94;;;2.25;100.00
58622;BME280;44389;51.578;5.456;2023-03-12T08:12:39;100664.16;;;2.30;100.00
58622;BME280;44389;51.578;5.456;2023-03-12T08:15:06;100665.38;;;2.37;100.00
58622;BME280;44389;51.578;5.456;2023-03-12T08:17:32;100658.91;;;2.42;100.00
58622;BME280;44389;51.578;5.456;2023-03-12T08:19:57;100655.75;;;2.46;100.00
58622;BME280;44389;51.578;5.456;2023-03-12T08:22:23;100664.63;;;2.53;100.00
58622;BME280;44389;51.578;5.456;2023-03-12T08:24:48;100672.53;;;2.57;100.00
58622;BME280;44389;51.578;5.456;2023-03-12T08:27:13;100672.78;;;2.62;100.00
58622;BME280;44389;51.578;5.456;2023-03-12T08:29:39;100674.84;;;2.68;100.00
58622;BME280;44389;51.578;5.456;2023-03-12T08:32:05;100665.03;;;2.74;100.00
58622;BME280;44389;51.578;5.456;2023-03-12T08:34:34;100684.75;;;2.78;100.00
58622;BME280;44389;51.578;5.456;2023-03-12T08:37:00;100680.81;;;2.83;100.00
58622;BME280;44389;51.578;5.456;2023-03-12T08:39:25;100683.72;;;2.89;100.00
58622;BME280;44389;51.578;5.456;2023-03-12T08:41:50;100677.22;;;2.94;100.00
58622;BME280;44389;51.578;5.456;2023-03-12T08:44:20;100682.56;;;2.99;100.00
58622;BME280;44389;51.578;5.456;2023-03-12T08:46:45;100683.72;;;3.04;100.00
58622;BME280;44389;51.578;5.456;2023-03-12T08:49:11;100691.97;;;3.15;100.00
58622;BME280;44389;51.578;5.456;2023-03-12T08:51:37;100688.97;;;3.22;100.00
58622;BME280;44389;51.578;5.456;2023-03-12T08:54:02;100695.28;;;3.29;100.00
58622;BME280;44389;51.578;5.456;2023-03-12T08:56:29;100698.25;;;3.37;100.00
58622;BME280;44389;51.578;5.456;2023-03-12T08:58:54;100700.53;;;3.47;100.00
58622;BME280;44389;51.578;5.456;2023-03-12T09:01:19;100697.72;;;3.57;100.00
58622;BME280;44389;51.578;5.456;2023-03-12T09:03:45;100695.50;;;3.63;100.00
58622;BME280;44389;51.578;5.456;2023-03-12T09:06:12;100694.25;;;3.72;100.00
58622;BME280;44389;51.578;5.456;2023-03-12T09:08:43;100694.06;;;3.84;100.00
58622;BME280;44389;51.578;5.456;2023-03-12T09:11:10;100695.25;;;3.90;100.00
58622;BME280;44389;51.578;5.456;2023-03-12T09:13:36;100698.31;;;4.00;100.00
58622;BME280;44389;51.578;5.456;2023-03-12T09:16:03;100699.56;;;4.08;100.00
58622;BME280;44389;51.578;5.456;2023-03-12T09:18:28;100703.59;;;4.19;100.00
58622;BME280;44389;51.578;5.456;2023-03-12T09:20:54;100694.03;;;4.32;100.00
58622;BME280;44389;51.578;5.456;2023-03-12T09:23:20;100688.63;;;4.42;100.00
58622;BME280;44389;51.578;5.456;2023-03-12T09:25:46;100688.38;;;4.54;100.00
58622;BME280;44389;51.578;5.456;2023-03-12T09:28:12;100689.72;;;4.64;100.00
58622;BME280;44389;51.578;5.456;2023-03-12T09:30:37;100692.94;;;4.77;100.00
58622;BME280;44389;51.578;5.456;2023-03-12T09:33:03;100689.34;;;4.90;100.00
58622;BME280;44389;51.578;5.456;2023-03-12T09:35:28;100685.00;;;5.06;100.00
58622;BME280;44389;51.578;5.456;2023-03-12T09:37:56;100700.13;;;5.19;100.00
58622;BME280;44389;51.578;5.456;2023-03-12T09:40:23;100696.25;;;5.27;100.00
58622;BME280;44389;51.578;5.456;2023-03-12T09:42:52;100694.16;;;5.37;100.00
58622;BME280;44389;51.578;5.456;2023-03-12T09:45:23;100692.63;;;5.58;100.00
58622;BME280;44389;51.578;5.456;2023-03-12T09:47:53;100690.38;;;5.65;100.00
58622;BME280;44389;51.578;5.456;2023-03-12T09:55:51;100720.25;;;6.02;100.00
58622;BME280;44389;51.578;5.456;2023-03-12T09:58:29;100723.34;;;6.14;100.00
58622;BME280;44389;51.578;5.456;2023-03-12T10:00:59;100721.19;;;6.23;100.00
58622;BME280;44389;51.578;5.456;2023-03-12T10:03:28;100730.06;;;6.30;100.00
58622;BME280;44389;51.578;5.456;2023-03-12T10:06:19;100725.78;;;6.31;100.00
58622;BME280;44389;51.578;5.456;2023-03-12T10:11:50;100717.19;;;6.48;100.00
58622;BME280;44389;51.578;5.456;2023-03-12T10:17:17;100712.06;;;6.68;100.00
58622;BME280;44389;51.578;5.456;2023-03-12T10:22:51;100715.78;;;6.96;100.00
58622;BME280;44389;51.578;5.456;2023-03-12T10:28:16;100710.44;;;7.32;100.00
58622;BME280;44389;51.578;5.456;2023-03-12T10:30:47;100715.81;;;7.38;100.00
58622;BME280;44389;51.578;5.456;2023-03-12T10:33:17;100715.91;;;7.41;100.00
58622;BME280;44389;51.578;5.456;2023-03-12T10:35:42;100717.63;;;7.40;100.00
58622;BME280;44389;51.578;5.456;2023-03-12T10:38:16;100728.25;;;7.50;100.00
58622;BME280;44389;51.578;5.456;2023-03-12T10:40:42;100711.66;;;7.63;100.00
58622;BME280;44389;51.578;5.456;2023-03-12T10:43:07;100727.34;;;7.70;100.00
58622;BME280;44389;51.578;5.456;2023-03-12T10:48:07;100705.25;;;7.74;100.00
58622;BME280;44389;51.578;5.456;2023-03-12T10:50:37;100712.94;;;7.74;100.00
58622;BME280;44389;51.578;5.456;2023-03-12T10:53:20;100707.25;;;7.81;100.00
58622;BME280;44389;51.578;5.456;2023-03-12T10:58:25;100708.22;;;7.85;100.00
58622;BME280;44389;51.578;5.456;2023-03-12T11:00:57;100712.38;;;7.81;100.00
58622;BME280;44389;51.578;5.456;2023-03-12T11:03:22;100715.13;;;7.86;100.00
58622;BME280;44389;51.578;5.456;2023-03-12T11:05:53;100710.75;;;7.83;100.00
58622;BME280;44389;51.578;5.456;2023-03-12T11:08:42;100711.53;;;7.82;100.00
58622;BME280;44389;51.578;5.456;2023-03-12T11:11:13;100718.38;;;7.82;100.00
58622;BME280;44389;51.578;5.456;2023-03-12T11:14:06;100717.63;;;7.84;100.00
58622;BME280;44389;51.578;5.456;2023-03-12T11:16:32;100712.50;;;7.84;100.00
58622;BME280;44389;51.578;5.456;2023-03-12T11:18:58;100728.84;;;7.86;100.00
58622;BME280;44389;51.578;5.456;2023-03-12T11:21:26;100724.50;;;7.85;100.00
58622;BME280;44389;51.578;5.456;2023-03-12T11:29:11;100730.94;;;7.97;100.00
58622;BME280;44389;51.578;5.456;2023-03-12T11:31:43;100730.34;;;8.04;100.00
58622;BME280;44389;51.578;5.456;2023-03-12T11:34:23;100728.00;;;8.10;100.00
58622;BME280;44389;51.578;5.456;2023-03-12T11:47:41;100729.88;;;8.37;100.00
58622;BME280;44389;51.578;5.456;2023-03-12T11:52:53;100731.81;;;8.44;100.00
58622;BME280;44389;51.578;5.456;2023-03-12T11:55:31;100726.06;;;8.50;100.00
58622;BME280;44389;51.578;5.456;2023-03-12T12:03:28;100720.63;;;9.16;100.00
58622;BME280;44389;51.578;5.456;2023-03-12T12:09:04;100707.44;;;10.16;100.00
58622;BME280;44389;51.578;5.456;2023-03-12T12:17:13;100690.94;;;10.40;100.00
58622;BME280;44389;51.578;5.456;2023-03-12T12:25:30;100693.25;;;10.95;100.00
58622;BME280;44389;51.578;5.456;2023-03-12T12:33:30;100673.22;;;10.84;100.00
58622;BME280;44389;51.578;5.456;2023-03-12T12:36:01;100675.34;;;11.01;100.00
58622;BME280;44389;51.578;5.456;2023-03-12T12:38:32;100669.38;;;11.02;100.00
58622;BME280;44389;51.578;5.456;2023-03-12T12:41:20;100664.06;;;10.96;100.00
58622;BME280;44389;51.578;5.456;2023-03-12T12:44:14;100665.25;;;10.75;100.00
58622;BME280;44389;51.578;5.456;2023-03-12T12:46:47;100655.88;;;10.45;100.00
58622;BME280;44389;51.578;5.456;2023-03-12T12:52:05;100667.56;;;10.34;100.00
58622;BME280;44389;51.578;5.456;2023-03-12T12:57:19;100666.84;;;10.08;100.00
58622;BME280;44389;51.578;5.456;2023-03-12T13:02:37;100649.22;;;9.93;100.00
58622;BME280;44389;51.578;5.456;2023-03-12T13:05:17;100643.97;;;9.88;100.00
58622;BME280;44389;51.578;5.456;2023-03-12T13:07:43;100644.53;;;9.78;100.00
58622;BME280;44389;51.578;5.456;2023-03-12T13:12:58;100649.47;;;9.71;100.00
58622;BME280;44389;51.578;5.456;2023-03-12T13:20:23;100642.09;;;9.53;100.00
58622;BME280;44389;51.578;5.456;2023-03-12T13:26:09;100654.94;;;9.53;100.00
58622;BME280;44389;51.578;5.456;2023-03-12T13:33:49;100642.16;;;9.56;100.00
58622;BME280;44389;51.578;5.456;2023-03-12T13:38:59;100636.66;;;9.73;100.00
58622;BME280;44389;51.578;5.456;2023-03-12T13:41:47;100638.03;;;9.91;100.00
58622;BME280;44389;51.578;5.456;2023-03-12T13:46:56;100642.81;;;10.07;100.00
58622;BME280;44389;51.578;5.456;2023-03-12T13:49:23;100633.78;;;10.23;99.90
58622;BME280;44389;51.578;5.456;2023-03-12T13:52:19;100625.50;;;10.35;99.89
58622;BME280;44389;51.578;5.456;2023-03-12T13:54:47;100641.22;;;10.43;98.73
58622;BME280;44389;51.578;5.456;2023-03-12T13:59:51;100629.09;;;10.38;99.23
58622;BME280;44389;51.578;5.456;2023-03-12T14:02:29;100641.03;;;10.36;99.87
58622;BME280;44389;51.578;5.456;2023-03-12T14:05:08;100642.75;;;10.36;100.00
58622;BME280;44389;51.578;5.456;2023-03-12T14:07:53;100651.72;;;10.50;100.00
58622;BME280;44389;51.578;5.456;2023-03-12T14:10:30;100662.66;;;10.75;98.36
58622;BME280;44389;51.578;5.456;2023-03-12T14:16:05;100649.03;;;11.14;97.14
58622;BME280;44389;51.578;5.456;2023-03-12T14:18:33;100652.84;;;11.30;95.91
58622;BME280;44389;51.578;5.456;2023-03-12T14:21:05;100662.50;;;11.38;95.25
58622;BME280;44389;51.578;5.456;2023-03-12T14:23:38;100672.63;;;11.30;93.58
58622;BME280;44389;51.578;5.456;2023-03-12T14:26:05;100660.28;;;11.18;93.23
58622;BME280;44389;51.578;5.456;2023-03-12T14:28:37;100660.03;;;11.07;91.17
58622;BME280;44389;51.578;5.456;2023-03-12T14:31:07;100660.81;;;11.03;91.80
58622;BME280;44389;51.578;5.456;2023-03-12T14:34:04;100677.09;;;11.02;92.55
58622;BME280;44389;51.578;5.456;2023-03-12T14:36:38;100673.34;;;10.89;92.47
58622;BME280;44389;51.578;5.456;2023-03-12T14:39:45;100668.38;;;10.97;93.25
58622;BME280;44389;51.578;5.456;2023-03-12T14:42:21;100669.03;;;10.90;92.79